Tufão MITAG 2002: trajetória, intensidade e histórico
9/03/2002, 00:00:00
26/02/2002, 06:00:00 – 9/03/2002, 00:00:00
Trajetória histórica
Acompanhe a evolução e o deslocamento de Tufão MITAG em 2002, com a trajetória completa registrada, ventos máximos sustentados de 140 nós, pressão central mínima e cronologia detalhada.
| Data | Hora | Tipo | Ventokm/h | PressãohPa |
|---|---|---|---|---|
| 09/03 | 00:00 | TDDepressão tropical | -- | 1012 |
| 08/03 | 21:00 | TDDepressão tropical | -- | 1012 |
| 08/03 | 18:00 | TDDepressão tropical | -- | 1012 |
| 08/03 | 15:00 | TDDepressão tropical | -- | 1008 |
| 08/03 | 12:00 | TDDepressão tropical | 35 | 1004 |
| 08/03 | 09:00 | TDDepressão tropical | 45 | 1003 |
| 08/03 | 06:00 | TSTempestade tropical | 45 | 1002 |
| 08/03 | 03:00 | TSTempestade tropical | 55 | 1000 |
| 08/03 | 00:00 | TSTempestade tropical | 65 | 997 |
| 07/03 | 21:00 | TSTempestade tropical | 85 | 991 |
| 07/03 | 18:00 | STSTempestade tropical severa | 100 | 984 |
| 07/03 | 15:00 | TTufão | 110 | 980 |
| 07/03 | 12:00 | STSTempestade tropical severa | 120 | 976 |
| 07/03 | 09:00 | TTufão | 130 | 972 |
| 07/03 | 06:00 | TTufão | 140 | 967 |
| 07/03 | 03:00 | TTufão | 155 | 958 |
| 07/03 | 00:00 | TTufão | 175 | 949 |
| 06/03 | 21:00 | STSupertufão | 195 | 938 |
| 06/03 | 18:00 | STSupertufão | 215 | 927 |
| 06/03 | 15:00 | STSupertufão | 220 | 925 |
| 06/03 | 12:00 | STSupertufão | 220 | 922 |
| 06/03 | 09:00 | STSupertufão | 230 | 919 |
| 06/03 | 06:00 | STSupertufão | 230 | 916 |
| 06/03 | 03:00 | STSupertufão | 235 | 913 |
| 06/03 | 00:00 | STSupertufão | 240 | 910 |
| 05/03 | 21:00 | STSupertufão | 250 | 904 |
| 05/03 | 18:00 | STSupertufão | 260 | 898 |
| 05/03 | 15:00 | STSupertufão | 260 | 898 |
| 05/03 | 12:00 | STSupertufão | 260 | 898 |
| 05/03 | 09:00 | STSupertufão | 260 | 898 |
| 05/03 | 06:00 | STSupertufão | 260 | 898 |
| 05/03 | 03:00 | STSupertufão | 250 | 904 |
| 05/03 | 00:00 | STSupertufão | 240 | 910 |
| 04/03 | 21:00 | STSupertufão | 235 | 913 |
| 04/03 | 18:00 | STSupertufão | 230 | 916 |
| 04/03 | 15:00 | STSupertufão | 230 | 919 |
| 04/03 | 12:00 | STSupertufão | 220 | 922 |
| 04/03 | 09:00 | STSupertufão | 220 | 925 |
| 04/03 | 06:00 | STSupertufão | 215 | 927 |
| 04/03 | 03:00 | STSupertufão | 215 | 927 |
| 04/03 | 00:00 | STSupertufão | 215 | 927 |
| 03/03 | 21:00 | STSupertufão | 205 | 933 |
| 03/03 | 18:00 | STSupertufão | 195 | 938 |
| 03/03 | 15:00 | STSupertufão | 190 | 941 |
| 03/03 | 12:00 | STSupertufão | 185 | 944 |
| 03/03 | 09:00 | STSupertufão | 185 | 944 |
| 03/03 | 06:00 | STSupertufão | 185 | 944 |
| 03/03 | 03:00 | STSupertufão | 185 | 944 |
| 03/03 | 00:00 | STSupertufão | 185 | 944 |
| 02/03 | 21:00 | STSupertufão | 185 | 944 |
| 02/03 | 18:00 | STSupertufão | 185 | 944 |
| 02/03 | 15:00 | TTufão | 175 | 949 |
| 02/03 | 12:00 | TTufão | 165 | 954 |
| 02/03 | 09:00 | TTufão | 155 | 961 |
| 02/03 | 06:00 | TTufão | 140 | 967 |
| 02/03 | 03:00 | TTufão | 135 | 970 |
| 02/03 | 00:00 | STSTempestade tropical severa | 130 | 972 |
| 01/03 | 21:00 | TTufão | 130 | 972 |
| 01/03 | 18:00 | STSTempestade tropical severa | 130 | 972 |
| 01/03 | 15:00 | TTufão | 130 | 972 |
| 01/03 | 12:00 | STSTempestade tropical severa | 130 | 972 |
| 01/03 | 09:00 | TTufão | 130 | 972 |
| 01/03 | 06:00 | STSTempestade tropical severa | 130 | 972 |
| 01/03 | 03:00 | TSTempestade tropical | 105 | 982 |
| 01/03 | 00:00 | TSTempestade tropical | 85 | 991 |
| 28/02 | 21:00 | TSTempestade tropical | 85 | 991 |
| 28/02 | 18:00 | TSTempestade tropical | 85 | 991 |
| 28/02 | 15:00 | TSTempestade tropical | 80 | 993 |
| 28/02 | 12:00 | TSTempestade tropical | 75 | 994 |
| 28/02 | 09:00 | TSTempestade tropical | 70 | 996 |
| 28/02 | 06:00 | TDDepressão tropical | 65 | 997 |
| 28/02 | 03:00 | TSTempestade tropical | 65 | 997 |
| 28/02 | 00:00 | TDDepressão tropical | 65 | 997 |
| 27/02 | 21:00 | TSTempestade tropical | 65 | 997 |
| 27/02 | 18:00 | TDDepressão tropical | 65 | 997 |
| 27/02 | 15:00 | TSTempestade tropical | 65 | 997 |
| 27/02 | 12:00 | TDDepressão tropical | 65 | 997 |
| 27/02 | 09:00 | TSTempestade tropical | 65 | 997 |
| 27/02 | 06:00 | TDDepressão tropical | 65 | 997 |
| 27/02 | 03:00 | TDDepressão tropical | 60 | 999 |
| 27/02 | 00:00 | TDDepressão tropical | 55 | 1000 |
| 26/02 | 21:00 | TDDepressão tropical | 50 | 1001 |
| 26/02 | 18:00 | TDDepressão tropical | 45 | 1002 |
| 26/02 | 15:00 | TDDepressão tropical | 45 | 1002 |
| 26/02 | 12:00 | TDDepressão tropical | 45 | 1002 |
| 26/02 | 09:00 | TDDepressão tropical | 45 | 1002 |
| 26/02 | 06:00 | TDDepressão tropical | 45 | 1002 |
Cronologia de localização
87 Registos de localizaçãoDesastres naturais próximos
Detalhes do evento
Ligações das fontes
Também pode encontrar estas ferramentas úteis
A localização, a extensão e o estado de cada evento podem ser atualizados em momentos diferentes consoante a fonte. Confirme decisões importantes junto das autoridades oficiais de emergência.
Os registos de eventos provêm da NASA EONET e são complementados por registos de deslizamentos de terra do USGS FDSN. As análises e previsões de tempestades podem utilizar a NOAA NHC ou o JTWC, com registos históricos ATCF da UCAR/NCAR quando disponíveis. As imagens de satélite provêm da NASA Worldview/GIBS (GOES e Himawari) ou da EUMETSAT Meteosat, consoante a cobertura do mapa.
Fontes: NASA EONET · USGS · NOAA NHC · JTWC · UCAR/NCAR ATCF · NASA Worldview/GIBS · EUMETSAT Meteosat · OpenStreetMap contributors